Time;durP1;ratioP1;P1;durP2;ratioP2;P2;SDS_P1;SDS_P2;PMS_P1;PMS_P2;Temp;Humidity;BMP_temperature;BMP_pressure;BME280_temperature;BME280_humidity;BME280_pressure;Samples;Min_cycle;Max_cycle;Signal;HPM_P1;HPM_P2
2023/09/23 00:01:58;;;;;;;3.43;1.73;;;;;;;9.62;100.00;95402.78;7427575;19;20381;-95
2023/09/23 00:04:29;;;;;;;3.77;2.60;;;;;;;9.46;100.00;95413.31;7428098;19;20421;-95
2023/09/23 00:06:58;;;;;;;3.33;2.30;;;;;;;9.34;100.00;95387.03;7427178;19;20376;-95
2023/09/23 00:09:25;;;;;;;6.03;2.40;;;;;;;7.43;100.00;95115.84;7427667;19;20420;-95
2023/09/23 00:12:06;;;;;;;8.03;2.30;;;;;;;7.85;100.00;95220.66;7426263;19;20388;-95
2023/09/23 00:14:47;;;;;;;2.60;2.40;;;;;;;9.11;100.00;95397.41;7425872;19;20400;-95
2023/09/23 00:17:28;;;;;;;2.80;2.30;;;;;;;9.00;100.00;95385.84;7427408;19;20381;-94
2023/09/23 00:20:06;;;;;;;3.00;2.40;;;;;;;7.72;100.00;95212.81;7428840;19;20377;-95
2023/09/23 00:22:47;;;;;;;4.13;2.80;;;;;;;6.87;100.00;95065.88;7426856;19;20392;-95
2023/09/23 00:25:27;;;;;;;3.13;2.20;;;;;;;8.66;100.00;95330.00;7427844;19;20405;-95
2023/09/23 00:28:11;;;;;;;2.50;2.03;;;;;;;9.03;100.00;95406.25;7425607;19;20408;-95
2023/09/23 00:30:53;;;;;;;2.40;2.20;;;;;;;8.96;100.00;95409.47;7426964;19;20389;-95
2023/09/23 00:33:37;;;;;;;2.10;1.90;;;;;;;7.96;100.00;95248.03;7429562;19;20396;-95
2023/09/23 00:36:08;;;;;;;2.20;1.97;;;;;;;8.96;100.00;95395.53;7427553;19;20393;-95
2023/09/23 00:38:40;;;;;;;11.90;2.47;;;;;;;8.89;100.00;95410.03;7427419;19;20476;-95
2023/09/23 00:41:21;;;;;;;2.77;1.90;;;;;;;7.54;100.00;95210.81;7424247;19;20377;-95
2023/09/23 00:43:53;;;;;;;2.40;2.20;;;;;;;7.66;100.00;95256.25;7425772;19;20827;-95
2023/09/23 00:46:36;;;;;;;2.40;2.20;;;;;;;7.00;100.00;95169.84;7427709;19;20369;-95
2023/09/23 00:49:13;;;;;;;3.00;2.80;;;;;;;8.52;100.00;95406.78;7425820;19;20432;-95
2023/09/23 00:51:44;;;;;;;4.50;2.77;;;;;;;8.66;100.00;95406.41;7424731;19;20397;-95
2023/09/23 00:54:13;;;;;;;3.80;2.20;;;;;;;8.32;100.00;95368.22;7426234;19;20443;-94
2023/09/23 00:56:49;;;;;;;3.27;1.97;;;;;;;8.61;100.00;95393.50;7423745;19;20404;-96
2023/09/23 00:59:32;;;;;;;2.17;1.97;;;;;;;8.38;100.00;95400.38;7425553;19;20432;-95
2023/09/23 01:02:14;;;;;;;6.43;2.30;;;;;;;8.48;100.00;95410.44;7425578;19;20416;-95
2023/09/23 01:04:55;;;;;;;3.20;2.03;;;;;;;8.55;100.00;95421.97;7428541;19;20421;-96
2023/09/23 01:07:38;;;;;;;5.10;2.50;;;;;;;8.54;100.00;95407.22;7427149;19;20408;-95
2023/09/23 01:10:12;;;;;;;2.60;2.37;;;;;;;8.54;100.00;95417.75;7428655;19;20373;-95
2023/09/23 01:12:56;;;;;;;5.83;2.30;;;;;;;8.61;100.00;95424.34;7432545;19;20415;-95
2023/09/23 01:15:31;;;;;;;2.97;2.77;;;;;;;7.39;100.00;95241.97;7431912;19;20381;-95
2023/09/23 01:18:15;;;;;;;2.30;2.10;;;;;;;8.50;100.00;95424.81;7429456;19;20428;-94
2023/09/23 01:21:03;;;;;;;3.67;2.30;;;;;;;7.25;100.00;95236.28;7429100;19;20424;-95
2023/09/23 01:23:48;;;;;;;7.60;2.20;;;;;;;8.49;100.00;95433.81;7431109;19;20396;-95
2023/09/23 01:26:34;;;;;;;3.80;3.40;;;;;;;8.38;100.00;95413.53;7427267;19;20381;-95
2023/09/23 01:29:11;;;;;;;2.57;2.37;;;;;;;8.01;100.00;95387.28;7428653;19;20431;-95
2023/09/23 01:31:40;;;;;;;2.27;2.07;;;;;;;6.76;100.00;95181.16;7427715;19;20375;-95
2023/09/23 06:46:38;;;;;;;8.47;6.33;;;;;;;8.59;100.00;95820.66;7407076;19;20385;-91
2023/09/23 06:49:08;;;;;;;1.77;1.53;;;;;;;8.00;100.00;95733.19;7402729;19;20389;-90
2023/09/23 06:51:35;;;;;;;17.50;8.40;;;;;;;7.04;100.00;95579.91;7402109;19;20389;-91
2023/09/23 06:54:05;;;;;;;2.80;2.47;;;;;;;6.98;100.00;95579.34;7402562;19;20409;-90
2023/09/23 06:56:34;;;;;;;3.20;2.87;;;;;;;6.32;100.00;95507.50;7399219;19;20763;-90
2023/09/23 06:59:04;;;;;;;4.70;3.30;;;;;;;6.44;100.00;95518.06;7402102;19;20384;-90
2023/09/23 07:01:35;;;;;;;1.30;1.20;;;;;;;8.57;100.00;95859.75;7402061;19;20389;-90
2023/09/23 07:04:02;;;;;;;1.73;1.40;;;;;;;7.20;100.00;95646.56;7400720;19;20934;-90
2023/09/23 07:06:29;;;;;;;1.40;1.30;;;;;;;8.72;100.00;95854.94;7399999;19;20407;-90
2023/09/23 07:08:57;;;;;;;3.90;3.40;;;;;;;7.83;100.00;95701.75;7400774;19;20380;-90
2023/09/23 07:11:26;;;;;;;4.27;1.50;;;;;;;6.81;100.00;95542.66;7401331;19;20388;-92
2023/09/23 07:13:55;;;;;;;1.47;1.37;;;;;;;8.71;100.00;95811.25;7401110;19;20380;-92
2023/09/23 07:16:22;;;;;;;1.70;1.40;;;;;;;8.29;100.00;95748.09;7399479;19;20401;-92
2023/09/23 07:18:50;;;;;;;2.47;1.90;;;;;;;7.95;100.00;95699.94;7402900;19;21020;-92
2023/09/23 07:21:17;;;;;;;1.80;1.70;;;;;;;8.35;100.00;95740.78;7404768;19;20445;-92
2023/09/23 07:23:44;;;;;;;1.23;1.13;;;;;;;8.49;100.00;95696.47;7405387;19;20389;-93
2023/09/23 07:26:20;;;;;;;1.40;1.20;;;;;;;8.91;100.00;95720.00;7403133;19;20389;-93
2023/09/23 07:28:50;;;;;;;1.10;1.00;;;;;;;9.17;100.00;95791.63;7407091;19;20395;-93
2023/09/23 07:31:18;;;;;;;1.60;1.10;;;;;;;9.84;100.00;95876.59;7405835;19;20376;-93
2023/09/23 07:33:45;;;;;;;2.23;2.03;;;;;;;9.45;100.00;95832.06;7407806;19;20379;-91
2023/09/23 07:36:13;;;;;;;1.13;1.03;;;;;;;9.39;100.00;95816.81;7402835;19;20396;-93
2023/09/23 07:38:40;;;;;;;1.77;1.67;;;;;;;10.13;100.00;95872.91;7405575;19;20392;-93
2023/09/23 07:41:07;;;;;;;2.90;1.70;;;;;;;8.96;100.00;95696.06;7403762;19;20435;-93
2023/09/23 07:43:35;;;;;;;3.03;1.10;;;;;;;8.34;100.00;95620.72;7406475;19;20401;-93
2023/09/23 07:46:02;;;;;;;1.30;1.20;;;;;;;9.94;100.00;95874.25;7403723;19;20414;-93
2023/09/23 07:48:29;;;;;;;3.00;2.80;;;;;;;9.16;100.00;95730.19;7404508;19;20409;-93
2023/09/23 07:50:56;;;;;;;1.60;1.40;;;;;;;9.50;100.00;95794.16;7403642;19;20397;-94
2023/09/23 07:53:23;;;;;;;2.30;2.10;;;;;;;8.44;100.00;95625.56;7408019;19;20401;-93
2023/09/23 07:55:50;;;;;;;2.20;1.40;;;;;;;9.23;100.00;95792.97;7402114;19;20393;-94
2023/09/23 07:58:17;;;;;;;3.50;3.17;;;;;;;9.69;100.00;95835.78;7402974;19;20436;-92
2023/09/23 08:00:44;;;;;;;2.07;1.93;;;;;;;10.28;100.00;95861.66;7404530;19;20406;-92
2023/09/23 08:03:11;;;;;;;3.93;1.73;;;;;;;9.24;100.00;95720.66;7405246;19;20391;-92
2023/09/23 08:05:39;;;;;;;2.60;2.40;;;;;;;10.09;100.00;95883.38;7402976;19;20907;-93
2023/09/23 08:08:06;;;;;;;2.80;2.60;;;;;;;10.08;100.00;95868.63;7400963;19;20440;-93
2023/09/23 08:10:33;;;;;;;2.43;1.90;;;;;;;9.82;100.00;95832.03;7405064;19;20391;-93
2023/09/23 08:13:00;;;;;;;2.13;1.60;;;;;;;9.66;100.00;95818.00;7402750;19;20377;-93
2023/09/23 08:15:27;;;;;;;1.53;1.43;;;;;;;9.72;100.00;95824.56;7400712;19;20395;-93
2023/09/23 08:17:54;;;;;;;2.13;1.70;;;;;;;10.36;100.00;95905.69;7402185;19;20405;-93
2023/09/23 08:20:23;;;;;;;6.53;4.60;;;;;;;10.70;100.00;95914.19;7404733;19;20910;-93
2023/09/23 08:22:51;;;;;;;2.50;1.43;;;;;;;9.26;100.00;95778.34;7404578;19;20384;-93
2023/09/23 08:25:18;;;;;;;2.10;1.33;;;;;;;9.74;100.00;95886.47;7403686;19;20369;-92
2023/09/23 08:27:46;;;;;;;1.33;1.07;;;;;;;9.45;100.00;95826.03;7395649;19;20465;-92
2023/09/23 08:30:17;;;;;;;1.17;1.07;;;;;;;10.32;100.00;95931.25;7402776;19;20388;-92
2023/09/23 08:32:45;;;;;;;2.10;1.33;;;;;;;9.93;100.00;95851.59;7404175;19;20373;-92
2023/09/23 08:35:12;;;;;;;1.90;1.70;;;;;;;9.19;100.00;95710.31;7402234;19;20377;-92
2023/09/23 08:37:40;;;;;;;1.10;1.00;;;;;;;9.46;100.00;95827.56;7395907;19;20930;-92
2023/09/23 08:40:10;;;;;;;1.40;1.30;;;;;;;10.33;100.00;95911.63;7397701;19;20933;-92
2023/09/23 08:42:38;;;;;;;1.33;1.10;;;;;;;9.98;100.00;95869.06;7406801;19;20388;-93
2023/09/23 08:45:09;;;;;;;3.20;1.30;;;;;;;10.85;100.00;95951.25;7412253;19;20384;-94
2023/09/23 08:47:37;;;;;;;1.97;1.40;;;;;;;9.87;100.00;95810.66;7408538;19;20440;-92
2023/09/23 08:50:08;;;;;;;3.13;1.10;;;;;;;11.28;100.00;96002.66;7414414;19;20914;-93
2023/09/23 08:52:36;;;;;;;1.20;1.10;;;;;;;9.17;100.00;95728.31;7397879;19;20408;-93
2023/09/23 08:55:04;;;;;;;1.70;1.60;;;;;;;10.44;100.00;95948.94;7402756;19;20379;-92
2023/09/23 08:57:34;;;;;;;3.63;2.90;;;;;;;9.96;100.00;95898.47;7395644;19;20407;-92
2023/09/23 09:00:07;;;;;;;1.87;1.30;;;;;;;10.35;100.00;95975.50;7401447;19;20699;-93
2023/09/23 09:02:34;;;;;;;2.53;1.50;;;;;;;10.05;100.00;95885.16;7396236;19;20383;-92
2023/09/23 09:05:01;;;;;;;5.50;4.67;;;;;;;10.30;100.00;95870.03;7396594;19;20400;-91
2023/09/23 09:07:36;;;;;;;6.10;2.97;;;;;;;11.43;100.00;96032.91;7395141;19;20440;-92
2023/09/23 09:10:04;;;;;;;3.27;1.27;;;;;;;9.29;100.00;95793.50;7397250;19;20373;-93
2023/09/23 09:12:35;;;;;;;9.70;4.70;;;;;;;8.85;100.00;95746.59;7401506;19;20412;-92
2023/09/23 09:15:07;;;;;;;1.50;1.27;;;;;;;8.88;100.00;95767.00;7396069;19;20401;-93
2023/09/23 09:17:36;;;;;;;1.43;1.17;;;;;;;8.51;100.00;95729.28;7403231;19;20444;-94
2023/09/23 09:20:11;;;;;;;2.17;1.97;;;;;;;9.81;100.00;95858.78;7400995;19;20468;-93
2023/09/23 09:22:39;;;;;;;1.77;1.20;;;;;;;9.89;100.00;95906.19;7405664;19;20404;-93
2023/09/23 09:25:11;;;;;;;2.10;1.50;;;;;;;10.51;100.00;96026.56;7395270;19;20406;-93
2023/09/23 09:27:39;;;;;;;1.60;1.50;;;;;;;10.22;100.00;95995.09;7393551;19;20400;-92
2023/09/23 09:30:11;;;;;;;1.20;1.10;;;;;;;9.58;100.00;95877.69;7403555;19;20396;-93
2023/09/23 09:32:44;;;;;;;2.03;1.40;;;;;;;10.01;100.00;95929.91;7397344;19;20373;-92
2023/09/23 09:35:13;;;;;;;1.80;1.27;;;;;;;9.85;100.00;95917.72;7399650;19;20385;-93
2023/09/23 09:37:53;;;;;;;2.13;1.30;;;;;;;8.57;100.00;95716.69;7394481;19;20400;-91
2023/09/23 09:40:50;;;;;;;1.90;1.43;;;;;;;9.07;100.00;95842.16;7402222;19;20400;-90
2023/09/23 09:43:20;;;;;;;2.27;1.20;;;;;;;8.94;100.00;95756.22;7414640;19;20402;-91
2023/09/23 11:22:50;;;;;;;1.63;1.30;;;;;;;11.39;100.00;95876.66;5726182;19;12014551;-94
2023/09/23 11:25:41;;;;;;;1.50;1.40;;;;;;;11.62;100.00;95993.31;7429342;19;20388;-96
2023/09/23 11:28:19;;;;;;;3.77;1.50;;;;;;;12.18;100.00;96054.13;7428882;19;20397;-94
2023/09/23 11:31:03;;;;;;;1.57;1.20;;;;;;;11.03;100.00;95805.44;7429893;19;20385;-95
2023/09/23 11:33:52;;;;;;;1.70;1.20;;;;;;;10.87;100.00;95758.59;7430043;19;20420;-95
2023/09/23 11:36:51;;;;;;;2.53;1.50;;;;;;;12.52;100.00;96055.28;7428759;19;20385;-95
2023/09/23 11:40:04;;;;;;;1.50;1.30;;;;;;;11.13;100.00;95773.19;7430911;19;20400;-95
2023/09/23 11:42:50;;;;;;;1.90;1.50;;;;;;;14.18;100.00;96067.63;7428012;19;20396;-95
2023/09/23 11:45:28;;;;;;;1.43;1.13;;;;;;;14.68;100.00;96057.75;7431445;19;20396;-96
2023/09/23 11:48:25;;;;;;;3.33;1.90;;;;;;;15.32;100.00;96074.56;7427867;19;20468;-95
2023/09/23 11:51:18;;;;;;;3.50;1.70;;;;;;;15.34;95.30;96096.28;7429123;19;20369;-95
2023/09/23 11:54:07;;;;;;;3.00;2.10;;;;;;;13.99;92.94;95912.75;7427761;19;20388;-94
2023/09/23 11:57:02;;;;;;;2.50;1.53;;;;;;;13.17;89.92;95771.47;7430217;19;20444;-95
2023/09/23 12:00:35;;;;;;;5.37;1.50;;;;;;;14.84;87.47;96076.25;7430212;19;20390;-95
2023/09/23 12:03:42;;;;;;;2.00;1.27;;;;;;;15.37;90.57;96082.25;7429282;19;20381;-95
2023/09/23 12:07:02;;;;;;;2.00;1.37;;;;;;;13.74;85.52;95790.13;7429387;19;20412;-95
2023/09/23 12:39:59;;;;;;;2.53;1.20;;;;;;;16.81;82.43;96095.81;7425050;19;20448;-96
2023/09/23 13:01:00;;;;;;;1.80;1.40;;;;;;;16.47;76.57;95975.84;7429555;19;20428;-96
2023/09/23 13:03:49;;;;;;;7.17;1.27;;;;;;;17.95;76.43;96115.81;7428630;19;20376;-96
2023/09/23 13:06:38;;;;;;;2.40;1.40;;;;;;;17.97;78.13;96105.50;7428650;19;20432;-96
2023/09/23 13:09:18;;;;;;;2.07;1.33;;;;;;;17.65;75.64;96113.41;7428482;19;20381;-96
2023/09/23 13:12:09;;;;;;;1.50;1.30;;;;;;;17.04;78.06;96107.00;7429261;19;20382;-96
2023/09/23 17:55:51;;;;;;;22.67;15.57;;;;;;;9.15;100.00;95997.66;7427844;19;20444;-91
2023/09/23 17:58:22;;;;;;;15.17;10.27;;;;;;;9.43;100.00;96047.22;7427359;19;20377;-91
2023/09/23 18:00:52;;;;;;;20.67;13.90;;;;;;;9.79;100.00;96191.78;7427685;19;20380;-92
2023/09/23 18:03:30;;;;;;;16.20;12.60;;;;;;;9.85;100.00;96210.81;7424958;19;20403;-91
2023/09/23 18:27:29;;;;;;;6.60;5.80;;;;;;;10.03;100.00;96270.34;7415102;19;20451;-95
2023/09/23 18:30:05;;;;;;;8.40;4.70;;;;;;;10.30;100.00;96317.38;7420449;19;20412;-95
2023/09/23 18:35:20;;;;;;;4.13;3.33;;;;;;;8.52;100.00;96060.16;7416900;19;20409;-94
2023/09/23 18:37:55;;;;;;;3.60;2.80;;;;;;;9.14;100.00;96209.00;7417423;19;20414;-94
2023/09/23 19:33:22;;;;;;;4.67;3.20;;;;;;;7.34;100.00;96256.38;7429393;19;20427;-96
2023/09/23 19:36:10;;;;;;;4.10;3.70;;;;;;;8.48;100.00;96490.59;7425275;19;20385;-96
2023/09/23 19:38:43;;;;;;;6.20;3.00;;;;;;;7.43;100.00;96341.34;7426035;19;20636;-96
2023/09/23 19:47:23;;;;;;;3.00;2.03;;;;;;;8.39;100.00;96501.09;7369610;19;20439;-94
2023/09/23 19:50:06;;;;;;;3.10;2.80;;;;;;;7.81;100.00;96435.56;7425686;19;20392;-93
2023/09/23 19:52:39;;;;;;;3.07;2.70;;;;;;;8.27;100.00;96509.56;7424435;19;20401;-94
2023/09/23 19:55:20;;;;;;;2.30;2.10;;;;;;;6.64;100.00;96250.13;7423715;19;20381;-95
2023/09/23 19:57:51;;;;;;;3.07;2.30;;;;;;;7.54;100.00;96416.28;7422720;19;20381;-94
2023/09/23 23:21:40;;;;;;;2.93;1.60;;;;;;;4.36;100.00;96460.66;7390874;19;20483;-94
2023/09/23 23:24:12;;;;;;;5.53;1.30;;;;;;;5.31;100.00;96618.59;7417682;19;20987;-94
2023/09/23 23:26:39;;;;;;;2.00;1.30;;;;;;;4.05;100.00;96428.13;7415839;19;20964;-94
2023/09/23 23:29:08;;;;;;;2.07;1.70;;;;;;;5.23;100.00;96614.78;7414116;19;20393;-94
2023/09/23 23:31:43;;;;;;;3.63;1.93;;;;;;;3.08;100.00;96271.69;7413524;19;20484;-94
2023/09/23 23:34:12;;;;;;;2.23;1.40;;;;;;;5.14;100.00;96585.03;7414933;19;20418;-93
2023/09/23 23:36:54;;;;;;;2.17;1.40;;;;;;;5.40;100.00;96624.75;7414966;19;20376;-93
2023/09/23 23:39:27;;;;;;;3.33;1.50;;;;;;;3.65;100.00;96336.06;7417060;19;20361;-94
2023/09/23 23:42:05;;;;;;;1.70;1.60;;;;;;;5.42;100.00;96627.09;7415541;19;20448;-94
2023/09/23 23:44:33;;;;;;;2.40;1.57;;;;;;;5.31;100.00;96629.84;7414114;19;20428;-94
2023/09/23 23:47:02;;;;;;;1.80;1.57;;;;;;;4.31;100.00;96445.03;7413578;19;20489;-94
2023/09/23 23:49:49;;;;;;;2.97;1.53;;;;;;;5.41;100.00;96623.69;7415941;19;20397;-94
2023/09/23 23:52:30;;;;;;;1.70;1.60;;;;;;;5.10;100.00;96627.81;7427172;19;20400;-94
2023/09/23 23:55:00;;;;;;;1.73;1.63;;;;;;;4.31;100.00;96496.59;7422594;19;20415;-94
2023/09/23 23:57:41;;;;;;;1.27;1.17;;;;;;;5.23;100.00;96625.28;7415120;19;20384;-94
